createdAt,value
2016-05-08T00:00:21.335Z,0
2016-05-08T00:01:21.494Z,0
2016-05-08T00:02:21.324Z,0
2016-05-08T00:03:21.452Z,0
2016-05-08T00:04:21.455Z,0
2016-05-08T00:05:21.286Z,0
2016-05-08T00:06:21.429Z,0
2016-05-08T00:07:21.416Z,0
2016-05-08T00:08:21.482Z,0
2016-05-08T00:09:21.406Z,0
2016-05-08T00:10:21.393Z,0
2016-05-08T00:11:21.365Z,0
2016-05-08T00:12:21.742Z,0
2016-05-08T00:13:21.198Z,0
2016-05-08T00:14:21.201Z,0
2016-05-08T00:15:21.328Z,0
2016-05-08T00:16:21.315Z,0
2016-05-08T00:17:21.318Z,0
2016-05-08T00:18:21.306Z,0
2016-05-08T00:19:21.292Z,0
2016-05-08T00:20:21.280Z,0
2016-05-08T00:21:21.266Z,0
2016-05-08T00:22:21.269Z,0
2016-05-08T00:23:21.195Z,0
2016-05-08T00:24:21.547Z,0
2016-05-08T00:25:21.238Z,0
2016-05-08T00:26:21.224Z,0
2016-05-08T00:27:21.196Z,0
2016-05-08T00:28:21.214Z,0
2016-05-08T00:29:21.030Z,0
2016-05-08T00:30:21.204Z,0
2016-05-08T00:31:21.020Z,0
2016-05-08T00:32:21.163Z,0
2016-05-08T00:33:21.009Z,0
2016-05-08T00:34:21.136Z,0
2016-05-08T00:35:21.342Z,0
2016-05-08T00:36:20.954Z,0
2016-05-08T00:37:21.129Z,0
2016-05-08T00:38:21.101Z,0
2016-05-08T00:39:20.775Z,0
2016-05-08T00:40:20.919Z,0
2016-05-08T00:41:21.061Z,0
2016-05-08T00:42:21.080Z,0
2016-05-08T00:43:21.052Z,0
2016-05-08T00:44:21.055Z,0
2016-05-08T00:45:20.869Z,0
2016-05-08T00:46:20.700Z,0
2016-05-08T00:47:21.000Z,0
2016-05-08T00:48:21.003Z,0
2016-05-08T00:49:20.989Z,0
2016-05-08T00:50:20.977Z,0
2016-05-08T00:51:20.948Z,0
2016-05-08T00:52:20.951Z,0
2016-05-08T00:53:20.796Z,0
2016-05-08T00:54:20.957Z,0
2016-05-08T00:55:20.912Z,0
2016-05-08T00:56:20.915Z,0
2016-05-08T00:57:20.917Z,0
2016-05-08T00:58:20.888Z,0
2016-05-08T00:59:20.875Z,0
2016-05-08T01:00:20.863Z,0
2016-05-08T01:01:20.694Z,0
2016-05-08T01:02:20.681Z,0
2016-05-08T01:03:20.839Z,0
2016-05-08T01:04:20.843Z,0
2016-05-08T01:05:20.657Z,0
2016-05-08T01:06:20.801Z,0
2016-05-08T01:07:20.788Z,0
2016-05-08T01:08:20.634Z,0
2016-05-08T01:09:20.777Z,0
2016-05-08T01:10:20.749Z,0
2016-05-08T01:11:20.767Z,0
2016-05-08T01:12:20.801Z,0
2016-05-08T01:13:20.726Z,0
2016-05-08T01:14:20.416Z,0
2016-05-08T01:15:20.559Z,0
2016-05-08T01:16:20.703Z,0
2016-05-08T01:17:20.534Z,0
2016-05-08T01:18:20.677Z,0
2016-05-08T01:19:20.664Z,0
2016-05-08T01:20:20.494Z,0
2016-05-08T01:21:20.638Z,0
2016-05-08T01:22:20.625Z,0
2016-05-08T01:23:20.613Z,0
2016-05-08T01:24:20.615Z,0
2016-05-08T01:25:20.431Z,0
2016-05-08T01:26:20.621Z,0
2016-05-08T01:27:20.280Z,0
2016-05-08T01:28:20.563Z,0
2016-05-08T01:29:20.567Z,0
2016-05-08T01:30:20.554Z,0
2016-05-08T01:31:20.385Z,0
2016-05-08T01:32:20.371Z,0
2016-05-08T01:33:20.516Z,0
2016-05-08T01:34:20.502Z,0
2016-05-08T01:35:20.349Z,0
2016-05-08T01:36:20.163Z,0
2016-05-08T01:37:20.479Z,0
2016-05-08T01:38:20.450Z,0
2016-05-08T01:39:20.438Z,0
2016-05-08T01:40:20.440Z,0
2016-05-08T01:41:20.427Z,0
2016-05-08T01:42:20.711Z,0
2016-05-08T01:43:20.260Z,0
2016-05-08T01:44:20.232Z,0
2016-05-08T01:45:20.376Z,0
2016-05-08T01:46:20.378Z,0
2016-05-08T01:47:20.350Z,0
2016-05-08T01:48:20.181Z,0
2016-05-08T01:49:20.339Z,0
2016-05-08T01:50:20.326Z,0
2016-05-08T01:51:20.173Z,0
2016-05-08T01:52:20.300Z,0
2016-05-08T01:53:20.303Z,0
2016-05-08T01:54:20.275Z,0
2016-05-08T01:55:20.262Z,0
2016-05-08T01:56:20.249Z,0
2016-05-08T01:57:20.564Z,0
2016-05-08T01:58:20.238Z,0
2016-05-08T01:59:20.225Z,0
2016-05-08T02:00:20.228Z,0
2016-05-08T02:01:20.044Z,0
2016-05-08T02:02:20.187Z,0
2016-05-08T02:03:20.189Z,0
2016-05-08T02:04:20.176Z,0
2016-05-08T02:05:20.163Z,0
2016-05-08T02:06:20.135Z,0
2016-05-08T02:07:20.138Z,0
2016-05-08T02:08:20.125Z,0
2016-05-08T02:09:20.127Z,0
2016-05-08T02:10:20.098Z,0
2016-05-08T02:11:20.086Z,0
2016-05-08T02:12:20.652Z,0
2016-05-08T02:13:20.060Z,0
2016-05-08T02:14:19.751Z,0
2016-05-08T02:15:20.050Z,0
2016-05-08T02:16:19.896Z,0
2016-05-08T02:17:20.039Z,0
2016-05-08T02:18:20.012Z,0
2016-05-08T02:19:19.842Z,0
2016-05-08T02:20:19.845Z,0
2016-05-08T02:21:19.972Z,0
2016-05-08T02:22:19.990Z,0
2016-05-08T02:23:19.947Z,0
2016-05-08T02:24:19.934Z,0
2016-05-08T02:25:19.920Z,0
2016-05-08T02:26:19.923Z,0
2016-05-08T02:27:20.269Z,0
2016-05-08T02:28:19.725Z,0
2016-05-08T02:29:19.884Z,0
2016-05-08T02:30:19.872Z,0
2016-05-08T02:31:19.858Z,0
2016-05-08T02:32:19.846Z,0
2016-05-08T02:33:19.833Z,0
2016-05-08T02:34:19.819Z,0
2016-05-08T02:35:20.010Z,0
2016-05-08T02:36:19.638Z,0
2016-05-08T02:37:19.812Z,0
2016-05-08T02:38:19.783Z,0
2016-05-08T02:39:19.615Z,0
2016-05-08T02:40:19.648Z,0
2016-05-08T02:41:19.745Z,0
2016-05-08T02:42:20.031Z,0
2016-05-08T02:43:19.626Z,0
2016-05-08T02:44:19.676Z,0
2016-05-08T02:45:19.884Z,0
2016-05-08T02:46:19.887Z,0
2016-05-08T02:47:19.917Z,0
2016-05-08T02:48:19.922Z,0
2016-05-08T02:49:19.926Z,0
2016-05-08T02:50:19.617Z,0
2016-05-08T02:51:19.794Z,0
2016-05-08T02:52:19.993Z,0
2016-05-08T02:53:19.924Z,0
2016-05-08T02:54:19.934Z,0
2016-05-08T02:55:19.755Z,0
2016-05-08T02:56:19.934Z,0
2016-05-08T02:57:19.770Z,0
2016-05-08T02:58:19.884Z,0
2016-05-08T02:59:19.889Z,0
2016-05-08T03:00:19.738Z,0
2016-05-08T03:01:19.727Z,0
2016-05-08T03:02:19.700Z,0
2016-05-08T03:03:19.687Z,0
2016-05-08T03:04:19.831Z,0
2016-05-08T03:05:19.663Z,0
2016-05-08T03:06:19.808Z,0
2016-05-08T03:07:19.795Z,0
2016-05-08T03:08:19.782Z,0
2016-05-08T03:09:19.613Z,0
2016-05-08T03:10:19.616Z,0
2016-05-08T03:11:19.744Z,0
2016-05-08T03:12:20.372Z,0
2016-05-08T03:13:19.750Z,0
2016-05-08T03:14:19.706Z,4
2016-05-08T03:15:19.693Z,4
2016-05-08T03:16:19.695Z,0
2016-05-08T03:17:19.683Z,0
2016-05-08T03:18:19.513Z,4
2016-05-08T03:19:19.516Z,4
2016-05-08T03:20:19.643Z,4
2016-05-08T03:21:19.632Z,4
2016-05-08T03:22:19.603Z,4
2016-05-08T03:23:19.606Z,8
2016-05-08T03:24:19.592Z,8
2016-05-08T03:25:19.579Z,8
2016-05-08T03:26:19.566Z,8
2016-05-08T03:27:19.804Z,12
2016-05-08T03:28:19.540Z,12
2016-05-08T03:29:19.528Z,12
2016-05-08T03:30:19.514Z,16
2016-05-08T03:31:19.518Z,16
2016-05-08T03:32:19.488Z,24
2016-05-08T03:33:19.320Z,28
2016-05-08T03:34:19.463Z,28
2016-05-08T03:35:19.465Z,32
2016-05-08T03:36:19.437Z,36
2016-05-08T03:37:19.471Z,44
2016-05-08T03:38:19.411Z,44
2016-05-08T03:39:19.398Z,52
2016-05-08T03:40:19.229Z,60
2016-05-08T03:41:19.232Z,64
2016-05-08T03:42:19.265Z,76
2016-05-08T03:43:19.347Z,84
2016-05-08T03:44:19.193Z,88
2016-05-08T03:45:19.180Z,100
2016-05-08T03:46:19.323Z,112
2016-05-08T03:47:19.310Z,124
2016-05-08T03:48:19.282Z,136
2016-05-08T03:49:19.285Z,148
2016-05-08T03:50:19.131Z,156
2016-05-08T03:51:19.102Z,172
2016-05-08T03:52:19.261Z,184
2016-05-08T03:53:19.248Z,200
2016-05-08T03:54:19.048Z,216
2016-05-08T03:55:18.895Z,232
2016-05-08T03:56:19.194Z,248
2016-05-08T03:57:18.884Z,268
2016-05-08T03:58:19.168Z,284
2016-05-08T03:59:19.155Z,304
2016-05-08T04:00:19.142Z,320
2016-05-08T04:01:19.129Z,340
2016-05-08T04:02:18.961Z,360
2016-05-08T04:03:19.103Z,380
2016-05-08T04:04:19.091Z,400
2016-05-08T04:05:19.093Z,420
2016-05-08T04:06:19.064Z,440
2016-05-08T04:07:18.895Z,460
2016-05-08T04:08:19.039Z,480
2016-05-08T04:09:19.025Z,504
2016-05-08T04:10:18.857Z,524
2016-05-08T04:11:18.688Z,544
2016-05-08T04:12:18.847Z,568
2016-05-08T04:13:18.974Z,588
2016-05-08T04:14:18.961Z,608
2016-05-08T04:15:18.823Z,632
2016-05-08T04:16:18.951Z,652
2016-05-08T04:17:18.938Z,676
2016-05-08T04:18:18.754Z,696
2016-05-08T04:19:18.912Z,720
2016-05-08T04:20:18.743Z,740
2016-05-08T04:21:18.887Z,760
2016-05-08T04:22:18.874Z,784
2016-05-08T04:23:18.845Z,800
2016-05-08T04:24:18.847Z,824
2016-05-08T04:25:18.834Z,844
2016-05-08T04:26:18.665Z,860
2016-05-08T04:27:18.809Z,880
2016-05-08T04:28:18.796Z,900
2016-05-08T04:29:18.783Z,916
2016-05-08T04:30:18.769Z,936
2016-05-08T04:31:18.741Z,956
2016-05-08T04:32:18.588Z,972
2016-05-08T04:33:18.575Z,996
2016-05-08T04:34:18.717Z,1012
2016-05-08T04:35:18.908Z,1028
2016-05-08T04:36:18.691Z,1048
2016-05-08T04:37:18.680Z,1064
2016-05-08T04:38:18.666Z,1084
2016-05-08T04:39:18.653Z,1100
2016-05-08T04:40:18.640Z,1112
2016-05-08T04:41:18.628Z,1132
2016-05-08T04:42:18.614Z,1148
2016-05-08T04:43:18.616Z,1164
2016-05-08T04:44:18.588Z,1180
2016-05-08T04:45:18.577Z,1200
2016-05-08T04:46:18.562Z,1212
2016-05-08T04:47:18.394Z,1228
2016-05-08T04:48:18.396Z,1244
2016-05-08T04:49:18.523Z,1260
2016-05-08T04:50:18.354Z,1272
2016-05-08T04:51:18.343Z,1288
2016-05-08T04:52:18.485Z,1304
2016-05-08T04:53:18.488Z,1316
2016-05-08T04:54:18.475Z,1336
2016-05-08T04:55:18.446Z,1348
2016-05-08T04:56:18.433Z,1360
2016-05-08T04:57:18.421Z,1376
2016-05-08T04:58:18.282Z,1388
2016-05-08T04:59:18.394Z,1400
2016-05-08T05:00:18.381Z,1420
2016-05-08T05:01:18.369Z,1428
2016-05-08T05:02:18.372Z,1440
2016-05-08T05:03:18.343Z,1452
2016-05-08T05:04:18.330Z,1464
2016-05-08T05:05:18.317Z,1476
2016-05-08T05:06:18.163Z,1488
2016-05-08T05:07:18.306Z,1500
2016-05-08T05:08:18.138Z,1512
2016-05-08T05:09:18.125Z,1528
2016-05-08T05:10:18.127Z,1540
2016-05-08T05:11:18.271Z,1552
2016-05-08T05:12:18.086Z,1564
2016-05-08T05:13:18.244Z,1576
2016-05-08T05:14:18.216Z,1588
2016-05-08T05:15:18.203Z,1604
2016-05-08T05:16:18.190Z,1612
2016-05-08T05:17:18.177Z,1620
2016-05-08T05:18:18.165Z,1632
2016-05-08T05:19:18.151Z,1644
2016-05-08T05:20:18.138Z,1656
2016-05-08T05:21:18.126Z,1672
2016-05-08T05:22:18.113Z,1684
2016-05-08T05:23:18.115Z,1696
2016-05-08T05:24:18.102Z,1708
2016-05-08T05:25:17.777Z,1716
2016-05-08T05:26:17.780Z,1732
2016-05-08T05:27:18.267Z,1736
2016-05-08T05:28:18.051Z,1748
2016-05-08T05:29:17.865Z,1760
2016-05-08T05:30:18.009Z,1772
2016-05-08T05:31:18.028Z,1784
2016-05-08T05:32:17.999Z,1792
2016-05-08T05:33:17.830Z,1808
2016-05-08T05:34:17.817Z,1812
2016-05-08T05:35:17.851Z,1824
2016-05-08T05:36:17.792Z,1832
2016-05-08T05:37:17.794Z,1840
2016-05-08T05:38:17.936Z,1852
2016-05-08T05:39:17.924Z,1860
2016-05-08T05:40:17.911Z,1872
2016-05-08T05:41:17.742Z,1880
2016-05-08T05:42:17.714Z,1892
2016-05-08T05:43:17.857Z,1908
2016-05-08T05:44:17.859Z,1916
2016-05-08T05:45:17.862Z,1928
2016-05-08T05:46:17.834Z,1936
2016-05-08T05:47:17.821Z,1948
2016-05-08T05:48:17.808Z,1956
2016-05-08T05:49:17.638Z,1968
2016-05-08T05:50:17.626Z,1976
2016-05-08T05:51:17.784Z,1988
2016-05-08T05:52:17.600Z,2000
2016-05-08T05:53:17.743Z,2008
2016-05-08T05:54:17.746Z,2020
2016-05-08T05:55:17.717Z,2032
2016-05-08T05:56:17.720Z,2044
2016-05-08T05:57:17.690Z,2052
2016-05-08T05:58:17.693Z,2056
2016-05-08T05:59:17.665Z,2068
2016-05-08T06:00:17.668Z,2076
2016-05-08T06:01:17.655Z,2088
2016-05-08T06:02:17.486Z,2096
2016-05-08T06:03:17.629Z,2108
2016-05-08T06:04:17.632Z,2116
2016-05-08T06:05:17.604Z,2128
2016-05-08T06:06:17.278Z,2140
2016-05-08T06:07:17.436Z,2148
2016-05-08T06:08:17.580Z,2160
2016-05-08T06:09:17.567Z,2168
2016-05-08T06:10:17.554Z,2176
2016-05-08T06:11:17.417Z,2192
2016-05-08T06:12:17.403Z,2200
2016-05-08T06:13:17.453Z,2212
2016-05-08T06:14:17.519Z,2220
2016-05-08T06:15:17.505Z,2228
2016-05-08T06:16:17.321Z,2240
2016-05-08T06:17:17.463Z,2252
2016-05-08T06:18:17.466Z,2260
2016-05-08T06:19:17.454Z,2276
2016-05-08T06:20:17.269Z,2284
2016-05-08T06:21:17.443Z,2296
2016-05-08T06:22:17.415Z,2312
2016-05-08T06:23:17.401Z,2324
2016-05-08T06:24:17.404Z,2336
2016-05-08T06:25:17.235Z,2340
2016-05-08T06:26:17.393Z,2352
2016-05-08T06:27:17.382Z,2372
2016-05-08T06:28:17.353Z,2380
2016-05-08T06:29:17.340Z,2392
2016-05-08T06:30:17.326Z,2408
2016-05-08T06:31:17.329Z,2420
2016-05-08T06:32:17.332Z,2436
2016-05-08T06:33:17.147Z,2444
2016-05-08T06:34:17.306Z,2456
2016-05-08T06:35:17.903Z,2472
2016-05-08T06:36:17.265Z,2484
2016-05-08T06:37:17.252Z,2492
2016-05-08T06:38:17.114Z,2500
2016-05-08T06:39:17.241Z,2508
2016-05-08T06:40:17.213Z,2524
2016-05-08T06:41:17.216Z,2536
2016-05-08T06:42:17.203Z,2548
2016-05-08T06:43:17.206Z,2560
2016-05-08T06:44:17.192Z,2568
2016-05-08T06:45:17.180Z,2572
2016-05-08T06:46:17.167Z,2580
2016-05-08T06:47:17.154Z,2592
2016-05-08T06:48:17.157Z,2604
2016-05-08T06:49:17.175Z,2612
2016-05-08T06:50:16.958Z,2624
2016-05-08T06:51:17.149Z,2640
2016-05-08T06:52:17.105Z,2644
2016-05-08T06:53:16.952Z,2652
2016-05-08T06:54:17.094Z,2668
2016-05-08T06:55:17.082Z,2692
2016-05-08T06:56:16.756Z,2700
2016-05-08T06:57:16.899Z,2708
2016-05-08T06:58:17.058Z,2724
2016-05-08T06:59:16.889Z,2752
2016-05-08T07:00:17.032Z,2764
2016-05-08T07:01:17.020Z,2768
2016-05-08T07:02:17.007Z,2780
2016-05-08T07:03:17.009Z,2800
2016-05-08T07:04:16.996Z,2812
2016-05-08T07:05:16.984Z,2824
2016-05-08T07:06:16.970Z,2836
2016-05-08T07:07:16.817Z,2848
2016-05-08T07:08:16.960Z,2868
2016-05-08T07:09:16.947Z,2888
2016-05-08T07:10:16.934Z,2904
2016-05-08T07:11:16.936Z,2916
2016-05-08T07:12:16.924Z,2928
2016-05-08T07:13:16.880Z,2948
2016-05-08T07:14:16.914Z,2976
2016-05-08T07:15:16.901Z,2996
2016-05-08T07:16:16.888Z,3012
2016-05-08T07:17:16.875Z,3036
2016-05-08T07:18:16.893Z,3060
2016-05-08T07:19:16.865Z,3076
2016-05-08T07:20:16.852Z,3104
2016-05-08T07:21:16.838Z,3120
2016-05-08T07:22:16.842Z,3144
2016-05-08T07:23:16.672Z,3176
2016-05-08T07:24:16.879Z,3208
2016-05-08T07:25:16.835Z,3256
2016-05-08T07:26:16.805Z,14176
2016-05-08T07:27:16.637Z,29824
2016-05-08T07:28:16.983Z,32800
2016-05-08T07:29:16.626Z,35584
2016-05-08T07:30:16.769Z,38560
2016-05-08T07:31:16.757Z,38912
2016-05-08T07:32:16.759Z,36960
2016-05-08T07:33:16.731Z,35264
2016-05-08T07:34:16.734Z,30848
2016-05-08T07:35:16.767Z,30016
2016-05-08T07:36:16.739Z,31872
2016-05-08T07:37:16.726Z,34112
2016-05-08T07:38:16.557Z,36544
2016-05-08T07:39:16.559Z,37120
2016-05-08T07:40:16.702Z,31552
2016-05-08T07:41:16.690Z,22976
2016-05-08T07:42:16.692Z,21344
2016-05-08T07:43:16.695Z,24096
2016-05-08T07:44:16.666Z,26912
2016-05-08T07:45:16.669Z,29536
2016-05-08T07:46:16.703Z,30560
2016-05-08T07:47:16.659Z,23936
2016-05-08T07:48:16.661Z,17856
2016-05-08T07:49:16.491Z,18432
2016-05-08T07:50:16.651Z,19552
2016-05-08T07:51:16.654Z,21600
2016-05-08T07:52:16.625Z,23616
2016-05-08T07:53:16.628Z,18400
2016-05-08T07:54:16.630Z,12264
2016-05-08T07:55:16.633Z,13268
2016-05-08T07:56:16.465Z,15152
2016-05-08T07:57:16.607Z,17280
2016-05-08T07:58:16.704Z,17664
2016-05-08T07:59:16.598Z,11948
2016-05-08T08:00:16.615Z,9136
2016-05-08T08:01:16.587Z,11180
2016-05-08T08:02:16.434Z,12344
2016-05-08T08:03:16.576Z,13168
2016-05-08T08:04:16.579Z,13920
2016-05-08T08:05:16.567Z,14100
2016-05-08T08:06:16.413Z,14468
2016-05-08T08:07:16.556Z,15840
2016-05-08T08:08:16.559Z,30464
2016-05-08T08:09:16.546Z,52192
2016-05-08T08:10:16.548Z,55360
2016-05-08T08:11:16.395Z,49856
2016-05-08T08:12:16.383Z,45216
2016-05-08T08:13:17.181Z,41952
2016-05-08T08:14:16.528Z,40960
2016-05-08T08:15:16.547Z,42272
2016-05-08T08:16:16.519Z,46240
2016-05-08T08:17:16.505Z,49824
2016-05-08T08:18:16.352Z,50496
2016-05-08T08:19:16.511Z,50112
2016-05-08T08:20:16.513Z,50816
2016-05-08T08:21:16.360Z,51680
2016-05-08T08:22:16.363Z,52352
2016-05-08T08:23:16.521Z,51520
2016-05-08T08:24:16.508Z,50624
2016-05-08T08:25:16.511Z,49920
2016-05-08T08:26:16.498Z,48256
2016-05-08T08:27:16.516Z,47552
2016-05-08T08:28:16.519Z,49504
2016-05-08T08:29:16.522Z,54752
2016-05-08T08:30:16.509Z,60832
2016-05-08T08:31:16.496Z,64384
2016-05-08T08:32:16.515Z,64448
2016-05-08T08:33:16.501Z,61248
2016-05-08T08:34:16.223Z,56768
2016-05-08T08:35:16.506Z,51648
2016-05-08T08:36:16.728Z,48704
2016-05-08T08:37:16.528Z,49184
2016-05-08T08:38:16.515Z,54432
2016-05-08T08:39:16.517Z,63360
2016-05-08T08:40:16.536Z,70080
2016-05-08T08:41:16.523Z,73312
2016-05-08T08:42:16.370Z,72160
2016-05-08T08:43:16.419Z,67360
2016-05-08T08:44:16.530Z,60672
2016-05-08T08:45:16.392Z,54592
2016-05-08T08:46:16.536Z,52800
2016-05-08T08:47:16.555Z,55712
2016-05-08T08:48:16.572Z,60672
2016-05-08T08:49:16.388Z,66176
2016-05-08T08:50:16.391Z,63392
2016-05-08T08:51:16.394Z,61856
2016-05-08T08:52:16.552Z,57888
2016-05-08T08:53:16.399Z,48640
2016-05-08T08:54:16.557Z,47392
2016-05-08T08:55:16.576Z,29856
2016-05-08T08:56:16.251Z,47488
2016-05-08T08:57:16.565Z,53792
2016-05-08T08:58:16.616Z,32736
2016-05-08T08:59:16.602Z,57216
2016-05-08T09:00:16.433Z,70784
2016-05-08T09:01:16.577Z,67552
2016-05-08T09:02:16.579Z,57856
2016-05-08T09:03:16.426Z,43712
2016-05-08T09:04:16.600Z,35104
2016-05-08T09:05:16.587Z,30432
2016-05-08T09:06:16.590Z,48384
2016-05-08T09:07:16.436Z,53344
2016-05-08T09:08:16.455Z,39136
2016-05-08T09:09:16.457Z,39840
2016-05-08T09:10:16.444Z,25728
2016-05-08T09:11:16.604Z,31680
2016-05-08T09:12:16.606Z,33920
2016-05-08T09:13:16.484Z,34048
2016-05-08T09:14:16.611Z,13836
2016-05-08T09:15:16.614Z,20320
2016-05-08T09:16:16.601Z,25696
2016-05-08T09:17:16.603Z,25920
2016-05-08T09:18:16.450Z,57280
2016-05-08T09:19:16.452Z,50016
2016-05-08T09:20:16.612Z,53536
2016-05-08T09:21:16.459Z,24256
2016-05-08T09:22:16.617Z,40448
2016-05-08T09:23:16.605Z,32352
2016-05-08T09:24:16.451Z,25344
2016-05-08T09:25:16.610Z,26464
2016-05-08T09:26:16.628Z,20448
2016-05-08T09:27:16.302Z,20192
2016-05-08T09:28:17.133Z,15300
2016-05-08T09:29:16.465Z,20128
2016-05-08T09:30:16.452Z,37824
2016-05-08T09:31:16.485Z,40704
2016-05-08T09:32:16.613Z,40672
2016-05-08T09:33:16.678Z,44512
2016-05-08T09:34:16.619Z,46976
2016-05-08T09:35:16.449Z,37024
2016-05-08T09:36:16.451Z,35808
2016-05-08T09:37:16.642Z,31552
2016-05-08T09:38:22.770Z,27296
2016-05-08T09:39:16.617Z,29440
2016-05-08T09:40:16.462Z,29312
2016-05-08T09:41:16.606Z,32480
2016-05-08T09:42:16.609Z,22592
2016-05-08T09:43:16.689Z,28864
2016-05-08T09:44:16.833Z,28096
2016-05-08T09:45:16.632Z,17768
2016-05-08T09:46:16.619Z,14924
2016-05-08T09:47:16.623Z,23680
2016-05-08T09:48:16.609Z,21344
2016-05-08T09:49:16.612Z,27904
2016-05-08T09:50:16.599Z,30912
2016-05-08T09:51:16.320Z,42432
2016-05-08T09:52:16.620Z,65472
2016-05-08T09:53:16.607Z,39264
2016-05-08T09:54:16.453Z,42336
2016-05-08T09:55:16.596Z,47616
2016-05-08T09:56:16.616Z,45760
2016-05-08T09:57:16.602Z,32480
2016-05-08T09:58:16.871Z,20160
2016-05-08T09:59:16.452Z,37248
2016-05-08T10:00:16.626Z,11840
2016-05-08T10:01:16.472Z,11588
2016-05-08T10:02:16.599Z,16192
2016-05-08T10:03:16.602Z,10188
2016-05-08T10:04:16.605Z,33760
2016-05-08T10:05:16.608Z,28704
2016-05-08T10:06:16.298Z,60032
2016-05-08T10:07:16.442Z,33216
2016-05-08T10:08:16.616Z,29184
2016-05-08T10:09:16.603Z,20736
2016-05-08T10:10:16.590Z,37600
2016-05-08T10:11:16.608Z,31072
2016-05-08T10:12:16.595Z,4864
2016-05-08T10:13:18.865Z,36736
2016-05-08T10:14:16.444Z,60928
2016-05-08T10:15:16.604Z,48448
2016-05-08T10:16:16.450Z,68384
2016-05-08T10:17:16.453Z,52192
2016-05-08T10:18:16.440Z,99200
2016-05-08T10:19:16.489Z,59424
2016-05-08T10:20:16.445Z,98976
2016-05-08T10:21:16.605Z,90656
2016-05-08T10:22:16.466Z,83168
2016-05-08T10:23:16.625Z,77888
2016-05-08T10:24:16.467Z,76288
2016-05-08T10:25:16.626Z,78784
2016-05-08T10:26:16.613Z,84352
2016-05-08T10:27:16.616Z,90816
2016-05-08T10:28:17.102Z,96608
2016-05-08T10:29:16.464Z,99392
2016-05-08T10:30:16.483Z,100096
2016-05-08T10:31:16.627Z,97792
2016-05-08T10:32:16.472Z,93824
2016-05-08T10:33:16.475Z,88992
2016-05-08T10:34:16.478Z,86048
2016-05-08T10:35:16.652Z,84736
2016-05-08T10:36:16.687Z,86528
2016-05-08T10:37:16.501Z,88960
2016-05-08T10:38:16.645Z,90912
2016-05-08T10:39:16.663Z,92032
2016-05-08T10:40:16.665Z,91552
2016-05-08T10:41:16.512Z,90624
2016-05-08T10:42:16.515Z,91264
2016-05-08T10:43:16.534Z,92800
2016-05-08T10:44:16.504Z,96384
2016-05-08T10:45:16.679Z,100224
2016-05-08T10:46:16.526Z,103296
2016-05-08T10:47:16.685Z,104448
2016-05-08T10:48:16.547Z,103808
2016-05-08T10:49:16.690Z,102208
2016-05-08T10:50:16.693Z,99456
2016-05-08T10:51:16.696Z,96000
2016-05-08T10:52:16.714Z,94528
2016-05-08T10:53:16.717Z,95104
2016-05-08T10:54:16.719Z,97728
2016-05-08T10:55:16.409Z,99040
2016-05-08T10:56:16.725Z,97600
2016-05-08T10:57:16.603Z,96576
2016-05-08T10:58:17.152Z,93408
2016-05-08T10:59:16.592Z,88800
2016-05-08T11:00:16.752Z,86304
2016-05-08T11:01:16.769Z,86912
2016-05-08T11:02:16.757Z,88448
2016-05-08T11:03:16.634Z,89920
2016-05-08T11:04:16.621Z,91584
2016-05-08T11:05:16.764Z,93792
2016-05-08T11:06:16.610Z,93984
2016-05-08T11:07:16.786Z,93312
2016-05-08T11:08:16.804Z,92384
2016-05-08T11:09:16.790Z,91904
2016-05-08T11:10:16.793Z,90528
2016-05-08T11:11:16.656Z,85280
2016-05-08T11:12:16.846Z,81600
2016-05-08T11:13:16.817Z,80160
2016-05-08T11:14:16.820Z,79296
2016-05-08T11:15:16.667Z,79744
2016-05-08T11:16:16.685Z,83776
2016-05-08T11:17:16.704Z,88224
2016-05-08T11:18:16.690Z,91392
2016-05-08T11:19:16.834Z,94272
2016-05-08T11:20:16.867Z,95968
2016-05-08T11:21:16.870Z,96256
2016-05-08T11:22:16.872Z,93920
2016-05-08T11:23:16.859Z,90048
2016-05-08T11:24:16.862Z,86656
2016-05-08T11:25:16.881Z,84352
2016-05-08T11:26:16.571Z,81280
2016-05-08T11:27:16.730Z,79808
2016-05-08T11:28:16.905Z,82688
2016-05-08T11:29:16.907Z,85696
2016-05-08T11:30:16.753Z,88992
2016-05-08T11:31:16.896Z,92224
2016-05-08T11:32:16.916Z,95168
2016-05-08T11:33:16.919Z,94720
2016-05-08T11:34:16.764Z,93472
2016-05-08T11:35:16.924Z,92608
2016-05-08T11:36:16.941Z,93824
2016-05-08T11:37:16.804Z,95456
2016-05-08T11:38:16.947Z,96416
2016-05-08T11:39:16.965Z,95456
2016-05-08T11:40:16.952Z,94272
2016-05-08T11:41:16.799Z,92416
2016-05-08T11:42:16.973Z,89856
2016-05-08T11:43:16.851Z,87776
2016-05-08T11:44:16.823Z,87232
2016-05-08T11:45:16.997Z,87680
2016-05-08T11:46:16.828Z,87840
2016-05-08T11:47:16.673Z,89152
2016-05-08T11:48:16.725Z,91552
2016-05-08T11:49:16.926Z,92576
2016-05-08T11:50:17.127Z,92768
2016-05-08T11:51:17.172Z,93984
2016-05-08T11:52:17.216Z,95648
2016-05-08T11:53:17.240Z,96192
2016-05-08T11:54:17.273Z,92352
2016-05-08T11:55:17.290Z,87776
2016-05-08T11:56:17.152Z,83232
2016-05-08T11:57:17.341Z,80160
2016-05-08T11:58:17.649Z,77568
2016-05-08T11:59:17.360Z,75712
2016-05-08T12:00:17.212Z,78976
2016-05-08T12:01:17.376Z,79104
2016-05-08T12:02:17.384Z,76096
2016-05-08T12:03:17.405Z,74464
2016-05-08T12:04:17.394Z,75200
2016-05-08T12:05:17.430Z,75360
2016-05-08T12:06:17.403Z,75808
2016-05-08T12:07:17.252Z,78944
2016-05-08T12:08:17.426Z,83872
2016-05-08T12:09:17.446Z,87040
2016-05-08T12:10:17.434Z,85088
2016-05-08T12:11:17.453Z,81952
2016-05-08T12:12:17.457Z,79296
2016-05-08T12:13:17.318Z,75360
2016-05-08T12:14:17.477Z,70688
2016-05-08T12:15:17.309Z,67456
2016-05-08T12:16:17.358Z,68512
2016-05-08T12:17:17.345Z,73248
2016-05-08T12:18:17.472Z,80992
2016-05-08T12:19:17.507Z,89376
2016-05-08T12:20:17.338Z,98592
2016-05-08T12:21:17.497Z,104736
2016-05-08T12:22:17.515Z,105504
2016-05-08T12:23:17.502Z,102336
2016-05-08T12:24:17.348Z,95616
2016-05-08T12:25:17.507Z,89984
2016-05-08T12:26:17.525Z,87200
2016-05-08T12:27:17.544Z,86656
2016-05-08T12:28:17.391Z,87520
2016-05-08T12:29:17.533Z,91136
2016-05-08T12:30:17.536Z,95008
2016-05-08T12:31:17.555Z,97760
2016-05-08T12:32:17.557Z,97728
2016-05-08T12:33:17.560Z,95776
2016-05-08T12:34:17.421Z,96000
2016-05-08T12:35:17.425Z,90592
2016-05-08T12:36:17.819Z,86624
2016-05-08T12:37:17.618Z,82560
2016-05-08T12:38:17.605Z,82176
2016-05-08T12:39:17.420Z,82912
2016-05-08T12:40:17.798Z,85472
2016-05-08T12:41:17.598Z,89472
2016-05-08T12:42:17.600Z,93120
2016-05-08T12:43:17.478Z,94336
2016-05-08T12:44:17.621Z,92736
2016-05-08T12:45:17.654Z,89664
2016-05-08T12:46:17.626Z,86048
2016-05-08T12:47:17.489Z,83712
2016-05-08T12:48:17.631Z,83648
2016-05-08T12:49:17.650Z,84352
2016-05-08T12:50:17.496Z,86016
2016-05-08T12:51:17.499Z,88736
2016-05-08T12:52:17.659Z,90432
2016-05-08T12:53:17.880Z,87776
2016-05-08T12:54:17.664Z,82432
2016-05-08T12:55:17.681Z,77952
2016-05-08T12:56:17.684Z,74912
2016-05-08T12:57:17.686Z,72320
2016-05-08T12:58:17.408Z,73056
2016-05-08T12:59:17.708Z,77408
2016-05-08T13:00:17.711Z,83072
2016-05-08T13:01:17.417Z,87872
2016-05-08T13:02:17.716Z,91968
2016-05-08T13:03:17.735Z,97184
2016-05-08T13:04:17.596Z,99424
2016-05-08T13:05:17.755Z,100032
2016-05-08T13:06:17.586Z,98592
2016-05-08T13:07:17.635Z,97248
2016-05-08T13:08:17.748Z,95360
2016-05-08T13:09:17.766Z,92608
2016-05-08T13:10:17.769Z,92608
2016-05-08T13:11:17.771Z,93280
2016-05-08T13:12:17.773Z,96288
2016-05-08T13:13:18.137Z,100192
2016-05-08T13:14:17.811Z,104288
2016-05-08T13:15:17.626Z,107360
2016-05-08T13:16:17.784Z,107200
2016-05-08T13:17:17.820Z,103104
2016-05-08T13:18:17.806Z,97472
2016-05-08T13:19:17.496Z,93632
2016-05-08T13:20:17.498Z,91200
2016-05-08T13:21:17.830Z,90432
2016-05-08T13:22:17.817Z,93760
2016-05-08T13:23:17.835Z,96832
2016-05-08T13:24:17.822Z,100128
2016-05-08T13:25:17.841Z,102368
2016-05-08T13:26:17.858Z,102336
2016-05-08T13:27:17.846Z,101056
2016-05-08T13:28:17.552Z,97568
2016-05-08T13:29:17.711Z,92896